sensor_id;sensor_type;location;lat;lon;timestamp;P1;durP1;ratioP1;P2;durP2;ratioP2
55609;SDS011;41486;52.502;13.486;2023-06-22T00:01:34;6.78;;;5.72;;
55609;SDS011;41486;52.502;13.486;2023-06-22T00:04:02;7.28;;;5.68;;
55609;SDS011;41486;52.502;13.486;2023-06-22T00:06:31;5.65;;;4.80;;
55609;SDS011;41486;52.502;13.486;2023-06-22T00:08:59;5.30;;;4.32;;
55609;SDS011;41486;52.502;13.486;2023-06-22T00:11:27;5.90;;;5.05;;
55609;SDS011;41486;52.502;13.486;2023-06-22T00:13:56;5.43;;;4.93;;
55609;SDS011;41486;52.502;13.486;2023-06-22T00:16:24;6.28;;;5.22;;
55609;SDS011;41486;52.502;13.486;2023-06-22T00:18:53;13.57;;;9.25;;
55609;SDS011;41486;52.502;13.486;2023-06-22T00:21:21;6.15;;;5.13;;
55609;SDS011;41486;52.502;13.486;2023-06-22T00:23:49;6.63;;;5.15;;
55609;SDS011;41486;52.502;13.486;2023-06-22T00:26:17;5.97;;;5.15;;
55609;SDS011;41486;52.502;13.486;2023-06-22T00:28:45;5.68;;;5.03;;
55609;SDS011;41486;52.502;13.486;2023-06-22T00:31:15;6.72;;;4.95;;
55609;SDS011;41486;52.502;13.486;2023-06-22T00:33:43;6.40;;;5.63;;
55609;SDS011;41486;52.502;13.486;2023-06-22T00:36:11;6.85;;;5.35;;
55609;SDS011;41486;52.502;13.486;2023-06-22T00:38:42;6.70;;;5.63;;
55609;SDS011;41486;52.502;13.486;2023-06-22T00:41:10;7.03;;;5.43;;
55609;SDS011;41486;52.502;13.486;2023-06-22T00:43:39;7.38;;;5.07;;
55609;SDS011;41486;52.502;13.486;2023-06-22T00:46:08;7.78;;;5.80;;
55609;SDS011;41486;52.502;13.486;2023-06-22T00:48:38;7.25;;;5.85;;
55609;SDS011;41486;52.502;13.486;2023-06-22T00:51:08;7.28;;;5.60;;
55609;SDS011;41486;52.502;13.486;2023-06-22T00:53:38;6.82;;;6.13;;
55609;SDS011;41486;52.502;13.486;2023-06-22T00:56:07;5.88;;;5.28;;
55609;SDS011;41486;52.502;13.486;2023-06-22T00:58:38;8.13;;;6.18;;
55609;SDS011;41486;52.502;13.486;2023-06-22T01:01:08;9.18;;;5.90;;
55609;SDS011;41486;52.502;13.486;2023-06-22T01:03:36;7.50;;;5.40;;
55609;SDS011;41486;52.502;13.486;2023-06-22T01:06:07;7.75;;;6.10;;
55609;SDS011;41486;52.502;13.486;2023-06-22T01:08:39;6.82;;;6.05;;
55609;SDS011;41486;52.502;13.486;2023-06-22T01:11:16;8.23;;;5.80;;
55609;SDS011;41486;52.502;13.486;2023-06-22T01:13:50;7.57;;;6.22;;
55609;SDS011;41486;52.502;13.486;2023-06-22T01:16:27;6.22;;;5.63;;
55609;SDS011;41486;52.502;13.486;2023-06-22T01:19:01;7.60;;;5.82;;
55609;SDS011;41486;52.502;13.486;2023-06-22T01:21:40;7.47;;;5.57;;
55609;SDS011;41486;52.502;13.486;2023-06-22T01:24:11;7.70;;;6.30;;
55609;SDS011;41486;52.502;13.486;2023-06-22T01:26:48;8.77;;;6.30;;
55609;SDS011;41486;52.502;13.486;2023-06-22T01:29:27;9.23;;;6.32;;
55609;SDS011;41486;52.502;13.486;2023-06-22T01:31:56;7.53;;;5.80;;
55609;SDS011;41486;52.502;13.486;2023-06-22T01:34:27;8.40;;;6.32;;
55609;SDS011;41486;52.502;13.486;2023-06-22T01:36:59;9.80;;;6.18;;
55609;SDS011;41486;52.502;13.486;2023-06-22T01:39:29;8.10;;;6.47;;
55609;SDS011;41486;52.502;13.486;2023-06-22T01:41:58;10.88;;;6.70;;
55609;SDS011;41486;52.502;13.486;2023-06-22T01:44:29;7.50;;;6.15;;
55609;SDS011;41486;52.502;13.486;2023-06-22T01:46:57;7.65;;;6.55;;
55609;SDS011;41486;52.502;13.486;2023-06-22T01:49:26;7.93;;;6.47;;
55609;SDS011;41486;52.502;13.486;2023-06-22T01:51:56;8.23;;;6.60;;
55609;SDS011;41486;52.502;13.486;2023-06-22T01:54:27;8.35;;;6.43;;
55609;SDS011;41486;52.502;13.486;2023-06-22T01:56:55;9.15;;;7.25;;
55609;SDS011;41486;52.502;13.486;2023-06-22T01:59:25;8.85;;;7.18;;
55609;SDS011;41486;52.502;13.486;2023-06-22T02:02:01;9.50;;;7.18;;
55609;SDS011;41486;52.502;13.486;2023-06-22T02:04:33;8.10;;;6.72;;
55609;SDS011;41486;52.502;13.486;2023-06-22T02:07:12;11.02;;;7.40;;
55609;SDS011;41486;52.502;13.486;2023-06-22T02:09:44;10.18;;;7.38;;
55609;SDS011;41486;52.502;13.486;2023-06-22T02:12:17;11.98;;;7.28;;
55609;SDS011;41486;52.502;13.486;2023-06-22T02:14:51;10.48;;;7.35;;
55609;SDS011;41486;52.502;13.486;2023-06-22T02:17:20;10.75;;;7.57;;
55609;SDS011;41486;52.502;13.486;2023-06-22T02:19:49;8.65;;;6.90;;
55609;SDS011;41486;52.502;13.486;2023-06-22T02:22:19;9.77;;;7.20;;
55609;SDS011;41486;52.502;13.486;2023-06-22T02:24:47;9.73;;;7.43;;
55609;SDS011;41486;52.502;13.486;2023-06-22T02:27:15;9.75;;;7.65;;
55609;SDS011;41486;52.502;13.486;2023-06-22T02:29:43;8.88;;;7.40;;
55609;SDS011;41486;52.502;13.486;2023-06-22T02:32:13;8.88;;;7.13;;
55609;SDS011;41486;52.502;13.486;2023-06-22T02:34:43;9.02;;;7.22;;
55609;SDS011;41486;52.502;13.486;2023-06-22T02:37:15;17.52;;;8.05;;
55609;SDS011;41486;52.502;13.486;2023-06-22T02:39:45;11.13;;;7.65;;
55609;SDS011;41486;52.502;13.486;2023-06-22T02:42:13;10.43;;;7.32;;
55609;SDS011;41486;52.502;13.486;2023-06-22T02:44:41;8.07;;;7.22;;
55609;SDS011;41486;52.502;13.486;2023-06-22T02:47:13;9.02;;;7.47;;
55609;SDS011;41486;52.502;13.486;2023-06-22T02:49:41;12.27;;;8.05;;
55609;SDS011;41486;52.502;13.486;2023-06-22T02:52:11;10.20;;;7.82;;
55609;SDS011;41486;52.502;13.486;2023-06-22T02:54:39;10.30;;;8.18;;
55609;SDS011;41486;52.502;13.486;2023-06-22T02:57:07;9.85;;;7.65;;
55609;SDS011;41486;52.502;13.486;2023-06-22T02:59:41;7.82;;;6.82;;
55609;SDS011;41486;52.502;13.486;2023-06-22T03:02:12;9.38;;;7.72;;
55609;SDS011;41486;52.502;13.486;2023-06-22T03:04:41;12.55;;;7.13;;
55609;SDS011;41486;52.502;13.486;2023-06-22T03:07:10;9.25;;;7.25;;
55609;SDS011;41486;52.502;13.486;2023-06-22T03:09:38;8.13;;;7.28;;
55609;SDS011;41486;52.502;13.486;2023-06-22T03:12:07;10.10;;;7.30;;
55609;SDS011;41486;52.502;13.486;2023-06-22T03:14:44;7.55;;;6.75;;
55609;SDS011;41486;52.502;13.486;2023-06-22T03:17:13;9.05;;;7.25;;
55609;SDS011;41486;52.502;13.486;2023-06-22T03:19:41;9.75;;;7.70;;
55609;SDS011;41486;52.502;13.486;2023-06-22T03:22:09;9.32;;;7.18;;
55609;SDS011;41486;52.502;13.486;2023-06-22T03:24:40;8.05;;;6.28;;
55609;SDS011;41486;52.502;13.486;2023-06-22T03:27:08;8.23;;;5.90;;
55609;SDS011;41486;52.502;13.486;2023-06-22T03:29:36;9.43;;;6.22;;
55609;SDS011;41486;52.502;13.486;2023-06-22T03:32:05;7.05;;;5.53;;
55609;SDS011;41486;52.502;13.486;2023-06-22T03:34:34;7.82;;;5.63;;
55609;SDS011;41486;52.502;13.486;2023-06-22T03:37:03;6.47;;;5.30;;
55609;SDS011;41486;52.502;13.486;2023-06-22T03:39:31;7.53;;;5.63;;
55609;SDS011;41486;52.502;13.486;2023-06-22T03:42:00;6.70;;;5.65;;
55609;SDS011;41486;52.502;13.486;2023-06-22T03:44:27;5.75;;;5.10;;
55609;SDS011;41486;52.502;13.486;2023-06-22T03:46:55;6.32;;;5.35;;
55609;SDS011;41486;52.502;13.486;2023-06-22T03:49:23;9.48;;;6.00;;
55609;SDS011;41486;52.502;13.486;2023-06-22T03:51:53;7.03;;;4.70;;
55609;SDS011;41486;52.502;13.486;2023-06-22T03:54:21;7.97;;;5.45;;
55609;SDS011;41486;52.502;13.486;2023-06-22T03:56:49;6.72;;;5.10;;
55609;SDS011;41486;52.502;13.486;2023-06-22T03:59:17;7.88;;;4.50;;
55609;SDS011;41486;52.502;13.486;2023-06-22T04:01:45;7.53;;;4.28;;
55609;SDS011;41486;52.502;13.486;2023-06-22T04:04:13;4.93;;;4.43;;
55609;SDS011;41486;52.502;13.486;2023-06-22T04:06:42;5.93;;;4.18;;
55609;SDS011;41486;52.502;13.486;2023-06-22T04:09:11;5.55;;;4.72;;
55609;SDS011;41486;52.502;13.486;2023-06-22T04:11:39;6.60;;;4.40;;
55609;SDS011;41486;52.502;13.486;2023-06-22T04:14:07;7.60;;;5.10;;
55609;SDS011;41486;52.502;13.486;2023-06-22T04:16:35;5.07;;;4.18;;
55609;SDS011;41486;52.502;13.486;2023-06-22T04:19:03;6.68;;;4.45;;
55609;SDS011;41486;52.502;13.486;2023-06-22T04:21:31;6.53;;;4.82;;
55609;SDS011;41486;52.502;13.486;2023-06-22T04:23:59;6.68;;;4.03;;
55609;SDS011;41486;52.502;13.486;2023-06-22T04:26:29;6.15;;;4.10;;
55609;SDS011;41486;52.502;13.486;2023-06-22T04:28:57;7.38;;;4.55;;
55609;SDS011;41486;52.502;13.486;2023-06-22T04:31:25;7.60;;;5.05;;
55609;SDS011;41486;52.502;13.486;2023-06-22T04:33:59;5.70;;;5.07;;
55609;SDS011;41486;52.502;13.486;2023-06-22T04:36:36;13.10;;;5.93;;
55609;SDS011;41486;52.502;13.486;2023-06-22T04:39:06;5.55;;;4.70;;
55609;SDS011;41486;52.502;13.486;2023-06-22T04:41:37;6.00;;;3.65;;
55609;SDS011;41486;52.502;13.486;2023-06-22T04:44:12;6.03;;;3.70;;
55609;SDS011;41486;52.502;13.486;2023-06-22T04:46:50;5.28;;;4.10;;
55609;SDS011;41486;52.502;13.486;2023-06-22T04:49:20;6.63;;;4.65;;
55609;SDS011;41486;52.502;13.486;2023-06-22T04:51:49;5.57;;;4.10;;
55609;SDS011;41486;52.502;13.486;2023-06-22T04:54:18;4.93;;;4.13;;
55609;SDS011;41486;52.502;13.486;2023-06-22T04:56:47;9.68;;;4.28;;
55609;SDS011;41486;52.502;13.486;2023-06-22T04:59:22;4.28;;;3.88;;
55609;SDS011;41486;52.502;13.486;2023-06-22T05:01:54;8.48;;;4.60;;
55609;SDS011;41486;52.502;13.486;2023-06-22T05:04:22;6.47;;;4.65;;
55609;SDS011;41486;52.502;13.486;2023-06-22T05:06:51;6.90;;;4.47;;
55609;SDS011;41486;52.502;13.486;2023-06-22T05:09:19;6.45;;;4.82;;
55609;SDS011;41486;52.502;13.486;2023-06-22T05:11:49;5.32;;;4.32;;
55609;SDS011;41486;52.502;13.486;2023-06-22T05:14:17;6.43;;;5.05;;
55609;SDS011;41486;52.502;13.486;2023-06-22T05:16:46;6.15;;;4.05;;
55609;SDS011;41486;52.502;13.486;2023-06-22T05:19:14;8.48;;;4.50;;
55609;SDS011;41486;52.502;13.486;2023-06-22T05:21:43;6.13;;;4.32;;
55609;SDS011;41486;52.502;13.486;2023-06-22T05:24:12;6.60;;;4.20;;
55609;SDS011;41486;52.502;13.486;2023-06-22T05:26:40;8.43;;;5.88;;
55609;SDS011;41486;52.502;13.486;2023-06-22T05:29:09;7.78;;;5.53;;
55609;SDS011;41486;52.502;13.486;2023-06-22T05:31:37;6.15;;;4.10;;
55609;SDS011;41486;52.502;13.486;2023-06-22T05:34:07;8.77;;;4.03;;
55609;SDS011;41486;52.502;13.486;2023-06-22T05:36:35;7.32;;;3.97;;
55609;SDS011;41486;52.502;13.486;2023-06-22T05:39:10;4.65;;;3.78;;
55609;SDS011;41486;52.502;13.486;2023-06-22T05:41:40;5.10;;;3.35;;
55609;SDS011;41486;52.502;13.486;2023-06-22T05:44:11;8.15;;;3.90;;
55609;SDS011;41486;52.502;13.486;2023-06-22T05:46:40;4.93;;;3.05;;
55609;SDS011;41486;52.502;13.486;2023-06-22T05:49:11;4.40;;;3.42;;
55609;SDS011;41486;52.502;13.486;2023-06-22T05:51:43;3.65;;;3.17;;
55609;SDS011;41486;52.502;13.486;2023-06-22T05:54:13;7.40;;;5.05;;
55609;SDS011;41486;52.502;13.486;2023-06-22T05:56:44;4.35;;;3.05;;
55609;SDS011;41486;52.502;13.486;2023-06-22T05:59:14;4.22;;;3.08;;
55609;SDS011;41486;52.502;13.486;2023-06-22T06:01:42;6.93;;;3.40;;
55609;SDS011;41486;52.502;13.486;2023-06-22T06:04:10;5.32;;;2.97;;
55609;SDS011;41486;52.502;13.486;2023-06-22T06:06:38;4.32;;;3.35;;
55609;SDS011;41486;52.502;13.486;2023-06-22T06:09:06;4.15;;;2.70;;
55609;SDS011;41486;52.502;13.486;2023-06-22T06:11:35;5.85;;;3.08;;
55609;SDS011;41486;52.502;13.486;2023-06-22T06:14:03;4.05;;;2.53;;
55609;SDS011;41486;52.502;13.486;2023-06-22T06:16:32;3.42;;;3.08;;
55609;SDS011;41486;52.502;13.486;2023-06-22T06:19:00;6.03;;;3.10;;
55609;SDS011;41486;52.502;13.486;2023-06-22T06:21:29;5.13;;;3.53;;
55609;SDS011;41486;52.502;13.486;2023-06-22T06:23:57;6.13;;;3.15;;
55609;SDS011;41486;52.502;13.486;2023-06-22T06:26:25;4.18;;;2.70;;
55609;SDS011;41486;52.502;13.486;2023-06-22T06:28:56;4.10;;;3.30;;
55609;SDS011;41486;52.502;13.486;2023-06-22T06:31:28;3.63;;;3.20;;
55609;SDS011;41486;52.502;13.486;2023-06-22T06:33:58;5.80;;;3.20;;
55609;SDS011;41486;52.502;13.486;2023-06-22T06:36:26;6.55;;;3.40;;
55609;SDS011;41486;52.502;13.486;2023-06-22T06:38:54;5.88;;;3.33;;
55609;SDS011;41486;52.502;13.486;2023-06-22T06:41:22;4.18;;;2.80;;
55609;SDS011;41486;52.502;13.486;2023-06-22T06:43:50;5.57;;;3.13;;
55609;SDS011;41486;52.502;13.486;2023-06-22T06:46:18;3.33;;;2.75;;
55609;SDS011;41486;52.502;13.486;2023-06-22T06:48:47;4.65;;;2.58;;
55609;SDS011;41486;52.502;13.486;2023-06-22T06:51:16;3.25;;;2.67;;
55609;SDS011;41486;52.502;13.486;2023-06-22T06:53:44;2.70;;;2.13;;
55609;SDS011;41486;52.502;13.486;2023-06-22T06:56:12;3.22;;;2.17;;
55609;SDS011;41486;52.502;13.486;2023-06-22T06:58:40;7.47;;;2.50;;
55609;SDS011;41486;52.502;13.486;2023-06-22T07:01:11;3.58;;;2.55;;
55609;SDS011;41486;52.502;13.486;2023-06-22T07:03:39;6.97;;;2.22;;
55609;SDS011;41486;52.502;13.486;2023-06-22T07:06:08;3.92;;;2.10;;
55609;SDS011;41486;52.502;13.486;2023-06-22T07:08:37;4.15;;;2.30;;
55609;SDS011;41486;52.502;13.486;2023-06-22T07:11:06;7.90;;;2.28;;
55609;SDS011;41486;52.502;13.486;2023-06-22T07:13:34;4.03;;;3.00;;
55609;SDS011;41486;52.502;13.486;2023-06-22T07:16:03;3.13;;;2.40;;
55609;SDS011;41486;52.502;13.486;2023-06-22T07:18:31;5.80;;;2.50;;
55609;SDS011;41486;52.502;13.486;2023-06-22T07:20:59;4.85;;;2.50;;
55609;SDS011;41486;52.502;13.486;2023-06-22T07:23:27;8.68;;;2.40;;
55609;SDS011;41486;52.502;13.486;2023-06-22T07:25:57;10.93;;;3.83;;
55609;SDS011;41486;52.502;13.486;2023-06-22T07:28:28;4.57;;;2.30;;
55609;SDS011;41486;52.502;13.486;2023-06-22T07:30:57;3.13;;;2.05;;
55609;SDS011;41486;52.502;13.486;2023-06-22T07:33:25;4.07;;;2.03;;
55609;SDS011;41486;52.502;13.486;2023-06-22T07:35:54;3.08;;;2.30;;
55609;SDS011;41486;52.502;13.486;2023-06-22T07:38:22;8.10;;;5.90;;
55609;SDS011;41486;52.502;13.486;2023-06-22T07:40:51;5.80;;;4.53;;
55609;SDS011;41486;52.502;13.486;2023-06-22T07:43:22;3.47;;;2.33;;
55609;SDS011;41486;52.502;13.486;2023-06-22T07:45:50;3.45;;;2.03;;
55609;SDS011;41486;52.502;13.486;2023-06-22T07:48:20;4.90;;;2.08;;
55609;SDS011;41486;52.502;13.486;2023-06-22T07:50:49;2.55;;;1.80;;
55609;SDS011;41486;52.502;13.486;2023-06-22T07:53:17;4.25;;;2.45;;
55609;SDS011;41486;52.502;13.486;2023-06-22T07:55:45;2.70;;;1.77;;
55609;SDS011;41486;52.502;13.486;2023-06-22T07:58:15;3.85;;;1.77;;
55609;SDS011;41486;52.502;13.486;2023-06-22T08:00:46;2.65;;;1.83;;
55609;SDS011;41486;52.502;13.486;2023-06-22T08:03:15;3.95;;;1.60;;
55609;SDS011;41486;52.502;13.486;2023-06-22T08:05:44;3.58;;;1.80;;
55609;SDS011;41486;52.502;13.486;2023-06-22T08:08:12;2.35;;;1.58;;
55609;SDS011;41486;52.502;13.486;2023-06-22T08:10:41;3.38;;;1.80;;
55609;SDS011;41486;52.502;13.486;2023-06-22T08:13:09;4.65;;;1.60;;
55609;SDS011;41486;52.502;13.486;2023-06-22T08:15:38;2.47;;;1.55;;
55609;SDS011;41486;52.502;13.486;2023-06-22T08:18:07;2.42;;;1.75;;
55609;SDS011;41486;52.502;13.486;2023-06-22T08:20:35;3.92;;;1.88;;
55609;SDS011;41486;52.502;13.486;2023-06-22T08:23:03;3.55;;;1.83;;
55609;SDS011;41486;52.502;13.486;2023-06-22T08:25:32;2.05;;;1.75;;
55609;SDS011;41486;52.502;13.486;2023-06-22T08:28:00;3.00;;;1.42;;
55609;SDS011;41486;52.502;13.486;2023-06-22T08:30:29;4.95;;;2.00;;
55609;SDS011;41486;52.502;13.486;2023-06-22T08:32:57;2.65;;;2.10;;
55609;SDS011;41486;52.502;13.486;2023-06-22T08:35:26;4.65;;;2.25;;
55609;SDS011;41486;52.502;13.486;2023-06-22T08:37:56;3.78;;;2.67;;
55609;SDS011;41486;52.502;13.486;2023-06-22T08:40:24;5.03;;;2.70;;
55609;SDS011;41486;52.502;13.486;2023-06-22T08:42:52;3.17;;;1.83;;
55609;SDS011;41486;52.502;13.486;2023-06-22T08:45:20;2.67;;;2.00;;
55609;SDS011;41486;52.502;13.486;2023-06-22T08:47:48;2.78;;;2.10;;
55609;SDS011;41486;52.502;13.486;2023-06-22T08:50:17;4.70;;;2.22;;
55609;SDS011;41486;52.502;13.486;2023-06-22T08:52:46;2.83;;;1.80;;
55609;SDS011;41486;52.502;13.486;2023-06-22T08:55:14;2.45;;;1.98;;
55609;SDS011;41486;52.502;13.486;2023-06-22T08:57:42;2.63;;;1.90;;
55609;SDS011;41486;52.502;13.486;2023-06-22T09:00:11;4.32;;;2.22;;
55609;SDS011;41486;52.502;13.486;2023-06-22T09:05:13;3.60;;;1.90;;
55609;SDS011;41486;52.502;13.486;2023-06-22T09:07:41;3.70;;;2.10;;
55609;SDS011;41486;52.502;13.486;2023-06-22T09:10:11;7.13;;;5.03;;
55609;SDS011;41486;52.502;13.486;2023-06-22T09:12:39;3.45;;;2.22;;
55609;SDS011;41486;52.502;13.486;2023-06-22T09:15:09;4.85;;;1.90;;
55609;SDS011;41486;52.502;13.486;2023-06-22T09:17:43;3.10;;;1.67;;
55609;SDS011;41486;52.502;13.486;2023-06-22T09:20:13;5.55;;;1.80;;
55609;SDS011;41486;52.502;13.486;2023-06-22T09:22:42;9.10;;;6.57;;
55609;SDS011;41486;52.502;13.486;2023-06-22T09:25:12;4.55;;;2.10;;
55609;SDS011;41486;52.502;13.486;2023-06-22T09:27:40;3.15;;;2.85;;
55609;SDS011;41486;52.502;13.486;2023-06-22T09:30:08;7.80;;;6.47;;
55609;SDS011;41486;52.502;13.486;2023-06-22T09:32:36;2.30;;;1.88;;
55609;SDS011;41486;52.502;13.486;2023-06-22T09:35:05;2.55;;;1.73;;
55609;SDS011;41486;52.502;13.486;2023-06-22T09:37:40;4.10;;;2.17;;
55609;SDS011;41486;52.502;13.486;2023-06-22T09:40:08;6.95;;;1.80;;
55609;SDS011;41486;52.502;13.486;2023-06-22T09:42:40;6.60;;;2.08;;
55609;SDS011;41486;52.502;13.486;2023-06-22T09:45:09;2.65;;;1.60;;
55609;SDS011;41486;52.502;13.486;2023-06-22T09:47:37;3.95;;;1.60;;
55609;SDS011;41486;52.502;13.486;2023-06-22T09:50:06;3.22;;;2.53;;
55609;SDS011;41486;52.502;13.486;2023-06-22T09:52:35;3.35;;;2.10;;
55609;SDS011;41486;52.502;13.486;2023-06-22T09:55:06;3.08;;;1.70;;
55609;SDS011;41486;52.502;13.486;2023-06-22T09:57:35;5.15;;;2.83;;
55609;SDS011;41486;52.502;13.486;2023-06-22T10:00:05;7.70;;;2.30;;
55609;SDS011;41486;52.502;13.486;2023-06-22T10:02:38;4.72;;;1.98;;
55609;SDS011;41486;52.502;13.486;2023-06-22T11:09:09;3.53;;;1.63;;
55609;SDS011;41486;52.502;13.486;2023-06-22T11:11:43;2.83;;;1.88;;
55609;SDS011;41486;52.502;13.486;2023-06-22T11:14:11;3.65;;;2.65;;
55609;SDS011;41486;52.502;13.486;2023-06-22T11:16:39;2.40;;;1.60;;
55609;SDS011;41486;52.502;13.486;2023-06-22T11:19:07;3.00;;;2.70;;
55609;SDS011;41486;52.502;13.486;2023-06-22T11:21:35;2.63;;;1.70;;
55609;SDS011;41486;52.502;13.486;2023-06-22T11:24:04;2.70;;;2.40;;
55609;SDS011;41486;52.502;13.486;2023-06-22T11:26:34;2.85;;;2.00;;
55609;SDS011;41486;52.502;13.486;2023-06-22T11:29:05;3.88;;;2.00;;
55609;SDS011;41486;52.502;13.486;2023-06-22T11:31:39;2.63;;;2.10;;
55609;SDS011;41486;52.502;13.486;2023-06-22T11:34:09;3.33;;;1.65;;
55609;SDS011;41486;52.502;13.486;2023-06-22T11:36:37;3.75;;;2.13;;
55609;SDS011;41486;52.502;13.486;2023-06-22T11:39:05;2.05;;;1.60;;
55609;SDS011;41486;52.502;13.486;2023-06-22T11:41:39;2.25;;;1.70;;
55609;SDS011;41486;52.502;13.486;2023-06-22T11:44:07;2.38;;;2.03;;
55609;SDS011;41486;52.502;13.486;2023-06-22T11:46:35;2.00;;;1.80;;
55609;SDS011;41486;52.502;13.486;2023-06-22T11:49:04;4.13;;;2.00;;
55609;SDS011;41486;52.502;13.486;2023-06-22T11:51:33;2.10;;;1.90;;
55609;SDS011;41486;52.502;13.486;2023-06-22T12:59:07;2.67;;;2.33;;
55609;SDS011;41486;52.502;13.486;2023-06-22T13:01:36;4.47;;;2.17;;
55609;SDS011;41486;52.502;13.486;2023-06-22T13:04:04;3.10;;;2.15;;
55609;SDS011;41486;52.502;13.486;2023-06-22T13:06:33;3.92;;;2.40;;
55609;SDS011;41486;52.502;13.486;2023-06-22T13:09:01;2.53;;;2.17;;
55609;SDS011;41486;52.502;13.486;2023-06-22T13:11:32;3.55;;;2.20;;
55609;SDS011;41486;52.502;13.486;2023-06-22T13:14:00;3.75;;;2.33;;
55609;SDS011;41486;52.502;13.486;2023-06-22T13:16:33;3.67;;;2.33;;
55609;SDS011;41486;52.502;13.486;2023-06-22T13:19:01;3.65;;;2.30;;
55609;SDS011;41486;52.502;13.486;2023-06-22T13:21:30;3.08;;;2.40;;
55609;SDS011;41486;52.502;13.486;2023-06-22T13:23:58;3.03;;;2.38;;
55609;SDS011;41486;52.502;13.486;2023-06-22T13:26:26;2.67;;;2.20;;
55609;SDS011;41486;52.502;13.486;2023-06-22T13:28:55;2.67;;;2.05;;
55609;SDS011;41486;52.502;13.486;2023-06-22T13:31:23;3.70;;;2.20;;
55609;SDS011;41486;52.502;13.486;2023-06-22T13:33:53;2.85;;;2.65;;
55609;SDS011;41486;52.502;13.486;2023-06-22T13:36:23;6.17;;;3.80;;
55609;SDS011;41486;52.502;13.486;2023-06-22T13:38:51;3.03;;;2.50;;
55609;SDS011;41486;52.502;13.486;2023-06-22T13:41:19;2.35;;;2.10;;
55609;SDS011;41486;52.502;13.486;2023-06-22T13:43:47;7.18;;;2.40;;
55609;SDS011;41486;52.502;13.486;2023-06-22T13:46:15;3.17;;;2.38;;
55609;SDS011;41486;52.502;13.486;2023-06-22T13:48:43;7.20;;;3.10;;
55609;SDS011;41486;52.502;13.486;2023-06-22T13:51:13;4.38;;;2.47;;
55609;SDS011;41486;52.502;13.486;2023-06-22T13:53:41;3.67;;;2.60;;
55609;SDS011;41486;52.502;13.486;2023-06-22T13:56:09;2.92;;;2.63;;
55609;SDS011;41486;52.502;13.486;2023-06-22T13:58:37;4.95;;;2.35;;
55609;SDS011;41486;52.502;13.486;2023-06-22T14:01:05;2.42;;;2.22;;
55609;SDS011;41486;52.502;13.486;2023-06-22T14:03:33;2.88;;;2.38;;
55609;SDS011;41486;52.502;13.486;2023-06-22T14:06:01;2.72;;;2.10;;
55609;SDS011;41486;52.502;13.486;2023-06-22T14:08:32;4.18;;;2.22;;
55609;SDS011;41486;52.502;13.486;2023-06-22T14:11:07;2.28;;;2.08;;
55609;SDS011;41486;52.502;13.486;2023-06-22T14:13:35;2.30;;;2.10;;
55609;SDS011;41486;52.502;13.486;2023-06-22T14:16:04;3.20;;;2.30;;
55609;SDS011;41486;52.502;13.486;2023-06-22T14:18:32;2.95;;;2.10;;
55609;SDS011;41486;52.502;13.486;2023-06-22T14:21:00;3.97;;;2.63;;
55609;SDS011;41486;52.502;13.486;2023-06-22T14:23:28;2.63;;;2.30;;
55609;SDS011;41486;52.502;13.486;2023-06-22T14:25:58;2.58;;;2.25;;
55609;SDS011;41486;52.502;13.486;2023-06-22T14:28:28;4.93;;;2.72;;
55609;SDS011;41486;52.502;13.486;2023-06-22T14:30:56;4.70;;;2.85;;
55609;SDS011;41486;52.502;13.486;2023-06-22T14:33:25;2.60;;;2.25;;
55609;SDS011;41486;52.502;13.486;2023-06-22T14:35:53;3.47;;;2.60;;
55609;SDS011;41486;52.502;13.486;2023-06-22T14:38:21;3.78;;;2.20;;
55609;SDS011;41486;52.502;13.486;2023-06-22T14:40:49;2.90;;;2.35;;
55609;SDS011;41486;52.502;13.486;2023-06-22T14:43:38;2.15;;;1.90;;
55609;SDS011;41486;52.502;13.486;2023-06-22T14:46:06;4.57;;;2.40;;
55609;SDS011;41486;52.502;13.486;2023-06-22T14:48:34;2.80;;;2.28;;
55609;SDS011;41486;52.502;13.486;2023-06-22T14:51:03;3.40;;;2.17;;
55609;SDS011;41486;52.502;13.486;2023-06-22T14:53:31;4.72;;;3.13;;
55609;SDS011;41486;52.502;13.486;2023-06-22T14:55:59;3.30;;;2.70;;
55609;SDS011;41486;52.502;13.486;2023-06-22T14:58:28;2.63;;;2.08;;
55609;SDS011;41486;52.502;13.486;2023-06-22T15:01:01;2.88;;;2.33;;
55609;SDS011;41486;52.502;13.486;2023-06-22T15:03:30;4.35;;;2.58;;
55609;SDS011;41486;52.502;13.486;2023-06-22T15:05:59;2.83;;;2.30;;
55609;SDS011;41486;52.502;13.486;2023-06-22T15:08:28;2.60;;;2.25;;
55609;SDS011;41486;52.502;13.486;2023-06-22T15:10:58;5.05;;;2.55;;
55609;SDS011;41486;52.502;13.486;2023-06-22T15:13:26;4.57;;;2.35;;
55609;SDS011;41486;52.502;13.486;2023-06-22T15:16:00;2.47;;;2.28;;
55609;SDS011;41486;52.502;13.486;2023-06-22T15:18:29;4.18;;;2.53;;
55609;SDS011;41486;52.502;13.486;2023-06-22T15:20:57;2.97;;;2.67;;
55609;SDS011;41486;52.502;13.486;2023-06-22T15:23:28;3.38;;;2.63;;
55609;SDS011;41486;52.502;13.486;2023-06-22T15:25:56;4.25;;;2.55;;
55609;SDS011;41486;52.502;13.486;2023-06-22T15:28:24;2.92;;;2.25;;
55609;SDS011;41486;52.502;13.486;2023-06-22T15:30:52;2.80;;;2.55;;
55609;SDS011;41486;52.502;13.486;2023-06-22T15:33:22;2.92;;;2.67;;
55609;SDS011;41486;52.502;13.486;2023-06-22T15:35:50;4.15;;;2.60;;
55609;SDS011;41486;52.502;13.486;2023-06-22T15:38:19;2.47;;;2.20;;
55609;SDS011;41486;52.502;13.486;2023-06-22T15:40:47;4.53;;;2.45;;
55609;SDS011;41486;52.502;13.486;2023-06-22T15:43:15;2.92;;;2.20;;
55609;SDS011;41486;52.502;13.486;2023-06-22T15:45:43;4.53;;;2.42;;
55609;SDS011;41486;52.502;13.486;2023-06-22T15:48:11;2.88;;;2.53;;
55609;SDS011;41486;52.502;13.486;2023-06-22T15:50:40;3.15;;;2.20;;
55609;SDS011;41486;52.502;13.486;2023-06-22T15:53:08;8.73;;;5.78;;
55609;SDS011;41486;52.502;13.486;2023-06-22T15:55:36;2.95;;;2.50;;
55609;SDS011;41486;52.502;13.486;2023-06-22T15:58:05;5.03;;;2.50;;
55609;SDS011;41486;52.502;13.486;2023-06-22T16:00:33;3.33;;;2.30;;
55609;SDS011;41486;52.502;13.486;2023-06-22T16:03:01;2.35;;;2.13;;
55609;SDS011;41486;52.502;13.486;2023-06-22T16:05:29;3.38;;;3.03;;
55609;SDS011;41486;52.502;13.486;2023-06-22T16:07:59;3.95;;;2.70;;
55609;SDS011;41486;52.502;13.486;2023-06-22T16:10:27;3.85;;;2.72;;
55609;SDS011;41486;52.502;13.486;2023-06-22T16:12:56;3.20;;;2.90;;
55609;SDS011;41486;52.502;13.486;2023-06-22T16:15:28;3.08;;;2.75;;
55609;SDS011;41486;52.502;13.486;2023-06-22T16:17:56;3.30;;;2.88;;
55609;SDS011;41486;52.502;13.486;2023-06-22T16:20:26;5.38;;;2.85;;
55609;SDS011;41486;52.502;13.486;2023-06-22T16:22:55;3.95;;;3.00;;
55609;SDS011;41486;52.502;13.486;2023-06-22T16:25:25;3.80;;;2.72;;
55609;SDS011;41486;52.502;13.486;2023-06-22T16:27:53;5.32;;;2.78;;
55609;SDS011;41486;52.502;13.486;2023-06-22T16:30:21;3.13;;;2.83;;
55609;SDS011;41486;52.502;13.486;2023-06-22T16:32:52;4.38;;;3.10;;
55609;SDS011;41486;52.502;13.486;2023-06-22T16:35:21;2.75;;;2.47;;
55609;SDS011;41486;52.502;13.486;2023-06-22T16:37:49;2.80;;;2.30;;
55609;SDS011;41486;52.502;13.486;2023-06-22T16:40:17;4.45;;;2.58;;
55609;SDS011;41486;52.502;13.486;2023-06-22T16:42:48;4.68;;;2.42;;
55609;SDS011;41486;52.502;13.486;2023-06-22T16:45:18;8.07;;;3.03;;
55609;SDS011;41486;52.502;13.486;2023-06-22T16:47:47;2.90;;;2.63;;
55609;SDS011;41486;52.502;13.486;2023-06-22T16:50:16;5.55;;;3.17;;
55609;SDS011;41486;52.502;13.486;2023-06-22T16:52:45;3.30;;;2.90;;
55609;SDS011;41486;52.502;13.486;2023-06-22T16:55:13;3.45;;;2.70;;
55609;SDS011;41486;52.502;13.486;2023-06-22T16:57:42;3.60;;;3.00;;